Time;durP1;ratioP1;P1;durP2;ratioP2;P2;SDS_P1;SDS_P2;PMS_P1;PMS_P2;Temp;Humidity;BMP_temperature;BMP_pressure;BME280_temperature;BME280_humidity;BME280_pressure;Samples;Min_cycle;Max_cycle;Signal;HPM_P1;HPM_P2
2023/12/04 00:01:56;;;;;;;19.80;15.37;;;-4.80;99.90;;;;;;5070071;28;20472;-54
2023/12/04 00:04:23;;;;;;;17.57;14.27;;;-4.80;99.90;;;;;;5068235;28;20437;-55
2023/12/04 00:06:49;;;;;;;22.03;16.20;;;-4.80;99.90;;;;;;5064118;28;20453;-54
2023/12/04 00:09:15;;;;;;;18.60;15.10;;;-4.90;99.90;;;;;;5064285;28;20502;-53
2023/12/04 00:11:41;;;;;;;19.10;15.47;;;-4.90;99.90;;;;;;5059515;28;20448;-54
2023/12/04 00:14:08;;;;;;;19.07;14.97;;;-4.90;99.90;;;;;;5063191;28;20236;-55
2023/12/04 00:16:35;;;;;;;19.73;15.20;;;-5.00;99.90;;;;;;5063676;28;20485;-53
2023/12/04 00:19:03;;;;;;;18.17;14.97;;;-5.10;99.90;;;;;;5069831;28;20447;-54
2023/12/04 00:21:30;;;;;;;18.53;15.70;;;-5.10;99.90;;;;;;5067319;28;20460;-54
2023/12/04 00:23:56;;;;;;;20.37;16.17;;;-5.20;99.90;;;;;;5078638;28;20465;-54
2023/12/04 00:26:23;;;;;;;28.00;17.50;;;-5.20;99.90;;;;;;5074205;28;20441;-53
2023/12/04 00:28:49;;;;;;;18.70;14.10;;;-5.30;99.90;;;;;;5071407;28;20445;-54
2023/12/04 00:31:16;;;;;;;17.03;14.07;;;-5.30;99.90;;;;;;5074867;28;20500;-53
2023/12/04 00:33:43;;;;;;;19.23;14.20;;;-5.30;99.90;;;;;;5072529;28;20872;-55
2023/12/04 00:36:11;;;;;;;19.43;14.33;;;-5.40;99.90;;;;;;5074504;28;20481;-54
2023/12/04 00:38:38;;;;;;;19.23;15.57;;;-5.40;99.90;;;;;;5067612;28;20448;-55
2023/12/04 00:41:05;;;;;;;20.03;15.07;;;-5.50;99.90;;;;;;5068559;28;20485;-55
2023/12/04 00:43:32;;;;;;;19.20;14.07;;;-5.50;99.90;;;;;;5064349;28;20493;-55
2023/12/04 00:45:58;;;;;;;18.73;13.83;;;-5.50;99.90;;;;;;5065482;28;20540;-54
2023/12/04 00:48:25;;;;;;;19.40;14.80;;;-5.60;99.90;;;;;;5070533;28;20507;-54
2023/12/04 00:50:52;;;;;;;22.80;15.40;;;-5.60;99.90;;;;;;5072600;28;20480;-53
2023/12/04 00:53:20;;;;;;;20.57;14.53;;;-5.60;99.90;;;;;;5061465;28;20504;-54
2023/12/04 00:55:46;;;;;;;17.30;15.13;;;-5.60;99.90;;;;;;5070371;28;20641;-54
2023/12/04 00:58:13;;;;;;;20.67;14.90;;;-5.60;99.90;;;;;;5066518;28;20445;-54
2023/12/04 01:00:39;;;;;;;18.27;15.10;;;-5.70;99.90;;;;;;5070785;28;20445;-54
2023/12/04 01:03:06;;;;;;;20.23;14.60;;;-5.70;99.90;;;;;;5057093;28;20551;-57
2023/12/04 01:05:32;;;;;;;16.93;13.40;;;-5.70;99.90;;;;;;5070787;28;20481;-58
2023/12/04 01:07:59;;;;;;;18.70;14.60;;;-5.70;99.90;;;;;;5059663;28;20481;-56
2023/12/04 01:10:27;;;;;;;20.70;15.93;;;-5.60;99.90;;;;;;5068370;28;20487;-57
2023/12/04 01:12:54;;;;;;;20.43;15.30;;;-5.60;99.90;;;;;;5070780;28;20490;-60
2023/12/04 01:15:20;;;;;;;20.43;15.70;;;-5.60;99.90;;;;;;5070666;28;20535;-58
2023/12/04 01:17:47;;;;;;;20.17;15.57;;;-5.60;99.90;;;;;;5062949;28;20495;-57
2023/12/04 01:20:13;;;;;;;21.50;15.27;;;-5.60;99.90;;;;;;5069465;28;20440;-61
2023/12/04 01:22:40;;;;;;;20.70;15.83;;;-5.60;99.90;;;;;;5064424;28;20472;-58
2023/12/04 01:25:08;;;;;;;21.20;17.13;;;-5.50;99.90;;;;;;5070432;28;20484;-58
2023/12/04 01:27:37;;;;;;;22.13;16.53;;;-5.50;99.90;;;;;;5070870;28;21200;-57
2023/12/04 01:30:04;;;;;;;23.03;16.30;;;-5.50;99.90;;;;;;5070007;28;20935;-59
2023/12/04 01:32:31;;;;;;;22.40;15.70;;;-5.60;99.90;;;;;;5061797;28;20835;-58
2023/12/04 01:34:58;;;;;;;22.10;17.03;;;-5.50;99.90;;;;;;5069179;28;20460;-57
2023/12/04 01:37:24;;;;;;;21.80;16.70;;;-5.60;99.90;;;;;;5072012;28;20477;-57
2023/12/04 01:39:51;;;;;;;22.27;16.30;;;-5.60;99.90;;;;;;5062705;28;20437;-56
2023/12/04 01:42:17;;;;;;;24.57;17.37;;;-5.60;99.90;;;;;;5068621;28;20465;-56
2023/12/04 01:44:45;;;;;;;24.73;17.63;;;-5.60;99.90;;;;;;5066267;28;20530;-57
2023/12/04 01:47:12;;;;;;;21.33;15.93;;;-5.50;99.90;;;;;;5071074;28;20433;-57
2023/12/04 01:49:39;;;;;;;22.67;16.97;;;-5.50;99.90;;;;;;5059343;28;20457;-57
2023/12/04 01:52:06;;;;;;;22.30;16.87;;;-5.40;99.90;;;;;;5064647;28;20901;-56
2023/12/04 01:54:33;;;;;;;23.20;16.97;;;-5.40;99.90;;;;;;5065510;28;21166;-56
2023/12/04 01:57:00;;;;;;;24.47;17.77;;;-5.30;99.90;;;;;;5070366;28;21263;-56
2023/12/04 01:59:27;;;;;;;22.60;17.80;;;-5.30;99.90;;;;;;5063287;28;20523;-57
2023/12/04 02:01:55;;;;;;;27.93;19.03;;;-5.30;99.90;;;;;;5068874;28;20473;-61
2023/12/04 02:04:22;;;;;;;23.50;17.87;;;-5.20;99.90;;;;;;5070971;28;21017;-57
2023/12/04 02:06:48;;;;;;;22.53;17.17;;;-5.10;99.90;;;;;;5072062;28;20514;-56
2023/12/04 02:09:16;;;;;;;27.17;19.07;;;-5.00;99.90;;;;;;5070384;28;20472;-57
2023/12/04 02:11:42;;;;;;;23.20;16.50;;;-5.10;99.90;;;;;;5071943;28;20533;-57
2023/12/04 02:14:09;;;;;;;23.93;18.20;;;-5.10;99.90;;;;;;5069070;28;20540;-56
2023/12/04 02:16:41;;;;;;;25.10;18.17;;;-5.10;99.90;;;;;;5060521;28;20480;-57
2023/12/04 02:19:12;;;;;;;24.77;18.27;;;-5.00;99.90;;;;;;5063840;28;20962;-57
2023/12/04 02:21:39;;;;;;;25.03;19.40;;;-4.90;99.90;;;;;;5070075;28;20445;-57
2023/12/04 02:24:07;;;;;;;23.23;17.40;;;-4.90;99.90;;;;;;5065138;28;20491;-56
2023/12/04 02:26:40;;;;;;;30.40;20.53;;;-4.80;99.90;;;;;;5071819;28;20444;-56
2023/12/04 02:29:12;;;;;;;29.47;20.73;;;-4.80;99.90;;;;;;5064164;28;20464;-57
2023/12/04 02:31:41;;;;;;;25.30;19.20;;;-4.70;99.90;;;;;;5070343;28;20476;-57
2023/12/04 02:34:09;;;;;;;26.77;21.60;;;-4.70;99.90;;;;;;5060984;28;20954;-58
2023/12/04 02:36:38;;;;;;;31.40;21.13;;;-4.70;99.90;;;;;;5068319;28;20968;-56
2023/12/04 02:39:07;;;;;;;27.13;20.57;;;-4.60;99.90;;;;;;5068750;28;20499;-57
2023/12/04 02:41:33;;;;;;;27.43;20.63;;;-4.40;99.90;;;;;;5068986;28;20504;-54
2023/12/04 02:44:00;;;;;;;24.43;18.90;;;-4.40;99.90;;;;;;5064179;28;20444;-54
2023/12/04 02:46:26;;;;;;;31.27;22.30;;;-4.40;99.90;;;;;;5062363;28;20523;-54
2023/12/04 02:48:53;;;;;;;27.27;20.90;;;-4.40;99.90;;;;;;5067790;28;20489;-54
2023/12/04 02:51:19;;;;;;;27.23;20.43;;;-4.40;99.90;;;;;;5061892;28;20546;-54
2023/12/04 02:53:46;;;;;;;28.10;21.73;;;-4.40;99.90;;;;;;5067455;28;20516;-54
2023/12/04 02:56:14;;;;;;;27.07;21.10;;;-4.40;99.90;;;;;;5068522;28;20554;-54
2023/12/04 02:58:40;;;;;;;27.47;20.40;;;-4.30;99.90;;;;;;5076041;28;20491;-55
2023/12/04 03:01:07;;;;;;;28.73;21.70;;;-4.30;99.90;;;;;;5076207;28;20437;-55
2023/12/04 03:03:34;;;;;;;31.47;21.90;;;-4.30;99.90;;;;;;5068214;28;20495;-54
2023/12/04 03:06:00;;;;;;;30.17;21.50;;;-4.20;99.90;;;;;;5068696;28;20441;-55
2023/12/04 03:08:27;;;;;;;28.70;21.43;;;-4.30;99.90;;;;;;5071838;28;20452;-55
2023/12/04 03:10:53;;;;;;;30.37;22.30;;;-4.20;99.90;;;;;;5060870;28;20492;-55
2023/12/04 03:13:21;;;;;;;27.27;20.43;;;-4.20;99.90;;;;;;5067722;28;20501;-54
2023/12/04 03:15:48;;;;;;;31.13;22.03;;;-4.30;99.90;;;;;;5064897;28;20545;-54
2023/12/04 03:18:14;;;;;;;27.00;21.40;;;-4.30;99.90;;;;;;5069236;28;20480;-55
2023/12/04 03:20:41;;;;;;;29.03;21.57;;;-4.40;99.90;;;;;;5060838;28;20461;-55
2023/12/04 03:23:07;;;;;;;26.80;19.97;;;-4.40;99.90;;;;;;5054878;28;20509;-55
2023/12/04 03:25:34;;;;;;;30.57;22.27;;;-4.40;99.90;;;;;;5059078;28;20485;-53
2023/12/04 03:28:00;;;;;;;28.60;21.80;;;-4.40;99.90;;;;;;5058460;28;20550;-55
2023/12/04 03:30:28;;;;;;;25.23;20.07;;;-4.40;99.90;;;;;;5062590;28;20485;-54
2023/12/04 03:32:55;;;;;;;25.37;20.90;;;-4.40;99.90;;;;;;5057477;28;20482;-54
2023/12/04 03:35:22;;;;;;;24.77;20.30;;;-4.40;99.90;;;;;;5060116;28;20469;-53
2023/12/04 03:37:49;;;;;;;34.37;21.97;;;-4.50;99.90;;;;;;5064525;28;21047;-54
2023/12/04 03:40:16;;;;;;;30.40;20.90;;;-4.40;99.90;;;;;;5064633;28;20488;-53
2023/12/04 03:42:42;;;;;;;30.47;21.87;;;-4.40;99.90;;;;;;5059528;28;20477;-53
2023/12/04 03:45:10;;;;;;;30.23;22.50;;;-4.40;99.90;;;;;;5062004;28;20462;-54
2023/12/04 03:47:38;;;;;;;25.93;19.30;;;-4.40;99.90;;;;;;5054650;28;20457;-54
2023/12/04 03:50:05;;;;;;;28.10;21.20;;;-4.40;99.90;;;;;;5059679;28;20518;-54
2023/12/04 03:52:32;;;;;;;26.27;20.93;;;-4.40;99.90;;;;;;5057408;28;20481;-54
2023/12/04 03:54:59;;;;;;;27.10;20.20;;;-4.30;99.90;;;;;;5060027;28;20485;-53
2023/12/04 03:57:25;;;;;;;30.77;23.43;;;-4.30;99.90;;;;;;5056793;28;20554;-54
2023/12/04 03:59:52;;;;;;;30.47;22.77;;;-4.30;99.90;;;;;;5063564;28;20531;-54
2023/12/04 04:02:18;;;;;;;27.93;20.37;;;-4.30;99.90;;;;;;5062075;28;20515;-55
2023/12/04 04:04:46;;;;;;;29.43;21.30;;;-4.10;99.90;;;;;;5059169;28;20499;-55
2023/12/04 04:07:14;;;;;;;29.53;23.07;;;-4.10;99.90;;;;;;5070024;28;20457;-53
2023/12/04 04:09:41;;;;;;;31.97;22.87;;;-4.10;99.90;;;;;;5062992;28;20462;-54
2023/12/04 04:12:08;;;;;;;32.77;23.50;;;-4.10;99.90;;;;;;5063650;28;20458;-54
2023/12/04 04:14:34;;;;;;;26.80;20.67;;;-4.10;99.90;;;;;;5061838;28;20454;-52
2023/12/04 04:17:01;;;;;;;25.73;19.90;;;-4.00;99.90;;;;;;5069688;28;20577;-54
2023/12/04 04:19:27;;;;;;;27.70;21.50;;;-4.10;99.90;;;;;;5071038;28;20487;-54
2023/12/04 04:21:55;;;;;;;28.77;22.67;;;-4.00;99.90;;;;;;5058893;28;20460;-55
2023/12/04 04:24:22;;;;;;;29.33;21.17;;;-4.00;99.90;;;;;;5068006;28;20491;-54
2023/12/04 04:26:49;;;;;;;26.97;20.73;;;-4.00;99.90;;;;;;5069608;28;20477;-58
2023/12/04 04:29:15;;;;;;;25.53;21.47;;;-4.00;99.90;;;;;;5073103;28;20577;-61
2023/12/04 04:31:42;;;;;;;30.57;21.83;;;-4.00;99.90;;;;;;5073191;28;20437;-60
2023/12/04 04:34:08;;;;;;;27.53;20.90;;;-4.00;99.90;;;;;;5071436;28;20927;-60
2023/12/04 04:36:36;;;;;;;25.70;20.07;;;-4.00;99.90;;;;;;5069617;28;20485;-60
2023/12/04 04:39:04;;;;;;;26.07;20.20;;;-4.00;99.90;;;;;;5072597;28;20457;-61
2023/12/04 04:41:31;;;;;;;33.20;23.90;;;-4.00;99.90;;;;;;5057214;28;20462;-60
2023/12/04 04:43:58;;;;;;;27.43;21.13;;;-4.10;99.90;;;;;;5072426;28;20886;-59
2023/12/04 04:46:26;;;;;;;27.17;22.20;;;-4.10;99.90;;;;;;5070311;28;20485;-60
2023/12/04 04:48:53;;;;;;;29.00;22.50;;;-4.10;99.90;;;;;;5072825;28;20538;-59
2023/12/04 04:51:19;;;;;;;26.73;21.60;;;-4.10;99.90;;;;;;5068906;28;20955;-59
2023/12/04 04:53:46;;;;;;;27.67;21.27;;;-4.20;99.90;;;;;;5072998;28;21025;-59
2023/12/04 04:56:14;;;;;;;28.57;21.40;;;-4.20;99.90;;;;;;5072757;28;20533;-61
2023/12/04 04:58:40;;;;;;;29.03;21.23;;;-4.20;99.90;;;;;;5062717;28;20467;-61
2023/12/04 05:01:08;;;;;;;29.77;21.00;;;-4.30;99.90;;;;;;5072319;28;20919;-61
2023/12/04 05:03:35;;;;;;;29.83;22.40;;;-4.30;99.90;;;;;;5071126;28;20473;-59
2023/12/04 05:06:01;;;;;;;31.40;21.80;;;-4.30;99.90;;;;;;5073679;28;20499;-54
2023/12/04 05:08:28;;;;;;;29.23;21.40;;;-4.30;99.90;;;;;;5071726;28;20491;-54
2023/12/04 05:10:54;;;;;;;29.53;22.67;;;-4.40;99.90;;;;;;5071601;28;20530;-55
2023/12/04 05:13:22;;;;;;;30.17;23.50;;;-4.40;99.90;;;;;;5060317;28;20485;-54
2023/12/04 05:15:49;;;;;;;29.10;21.43;;;-4.40;99.90;;;;;;5071518;28;20449;-57
2023/12/04 05:18:15;;;;;;;32.53;23.17;;;-4.50;99.90;;;;;;5065028;28;20477;-57
2023/12/04 05:20:42;;;;;;;29.03;22.17;;;-4.50;99.90;;;;;;5071872;28;20527;-57
2023/12/04 05:23:09;;;;;;;27.20;20.53;;;-4.60;99.90;;;;;;5062658;28;20469;-57
2023/12/04 05:25:35;;;;;;;26.83;20.13;;;-4.60;99.90;;;;;;5058897;28;20488;-60
2023/12/04 05:28:02;;;;;;;27.57;20.90;;;-4.60;99.90;;;;;;5067084;28;20478;-59
2023/12/04 05:30:30;;;;;;;25.70;21.00;;;-4.70;99.90;;;;;;5071168;28;20453;-54
2023/12/04 05:32:57;;;;;;;25.73;21.00;;;-4.70;99.90;;;;;;5056502;28;20485;-55
2023/12/04 05:35:23;;;;;;;27.40;20.33;;;-4.70;99.90;;;;;;5070344;28;20484;-55
2023/12/04 05:37:50;;;;;;;30.57;21.40;;;-4.70;99.90;;;;;;5072355;28;20886;-55
2023/12/04 05:40:17;;;;;;;25.67;20.43;;;-4.70;99.90;;;;;;5063163;28;20518;-55
2023/12/04 05:42:44;;;;;;;25.90;20.37;;;-4.70;99.90;;;;;;5062169;28;20472;-55
2023/12/04 05:45:10;;;;;;;27.27;20.37;;;-4.70;99.90;;;;;;5072398;28;20465;-53
2023/12/04 05:47:38;;;;;;;26.77;20.73;;;-4.70;99.90;;;;;;5072060;28;21010;-55
2023/12/04 05:50:07;;;;;;;26.67;20.30;;;-4.70;99.90;;;;;;5063403;28;21197;-54
2023/12/04 05:52:33;;;;;;;26.53;21.80;;;-4.80;99.90;;;;;;5070413;28;20504;-54
2023/12/04 05:55:00;;;;;;;26.50;20.97;;;-4.80;99.90;;;;;;5070621;28;20441;-54
2023/12/04 05:57:26;;;;;;;25.33;20.87;;;-4.80;99.90;;;;;;5069481;28;20561;-54
2023/12/04 05:59:53;;;;;;;26.10;20.80;;;-4.80;99.90;;;;;;5067107;28;20485;-54
2023/12/04 06:02:20;;;;;;;29.00;20.90;;;-4.80;99.90;;;;;;5070212;28;20480;-54
2023/12/04 06:04:48;;;;;;;28.27;22.00;;;-4.80;99.90;;;;;;5069687;28;20452;-54
2023/12/04 06:07:15;;;;;;;24.93;19.40;;;-4.80;99.90;;;;;;5053345;28;20577;-55
2023/12/04 06:09:42;;;;;;;24.40;18.40;;;-4.80;99.90;;;;;;5063559;28;20972;-55
2023/12/04 06:12:09;;;;;;;33.90;20.17;;;-4.70;99.90;;;;;;5066803;28;21015;-54
2023/12/04 06:14:36;;;;;;;28.17;21.47;;;-4.70;99.90;;;;;;5066011;28;20445;-55
2023/12/04 06:17:02;;;;;;;26.40;19.57;;;-4.60;99.90;;;;;;5071160;28;21219;-55
2023/12/04 06:19:29;;;;;;;25.97;19.30;;;-4.50;99.90;;;;;;5071615;28;20467;-55
2023/12/04 06:21:57;;;;;;;26.00;18.97;;;-4.40;99.90;;;;;;5065787;28;20487;-55
2023/12/04 06:24:25;;;;;;;23.90;19.20;;;-4.40;99.90;;;;;;5061201;28;20499;-55
2023/12/04 06:26:53;;;;;;;23.97;18.37;;;-4.30;99.90;;;;;;5070672;28;20458;-54
2023/12/04 06:29:20;;;;;;;24.30;19.83;;;-4.20;99.90;;;;;;5069242;28;20996;-54
2023/12/04 06:31:47;;;;;;;24.20;18.20;;;-4.20;99.90;;;;;;5082498;28;20475;-60
2023/12/04 06:34:14;;;;;;;32.10;18.50;;;-4.10;99.90;;;;;;5084589;28;20433;-55
2023/12/04 06:36:41;;;;;;;25.63;20.40;;;-4.10;99.90;;;;;;5067644;28;20451;-54
2023/12/04 06:39:12;;;;;;;25.77;19.57;;;-4.10;99.90;;;;;;5065080;28;20471;-55
2023/12/04 06:41:39;;;;;;;28.53;19.50;;;-4.10;99.90;;;;;;5061187;28;20977;-54
2023/12/04 06:44:06;;;;;;;26.00;19.97;;;-4.10;99.90;;;;;;5068209;28;20529;-54
2023/12/04 06:46:37;;;;;;;23.77;18.60;;;-4.10;99.90;;;;;;5071946;28;20453;-54
2023/12/04 06:49:06;;;;;;;24.37;19.50;;;-4.00;99.90;;;;;;5062731;28;20473;-60
2023/12/04 06:51:32;;;;;;;23.77;19.43;;;-3.90;99.90;;;;;;5062261;28;20619;-56
2023/12/04 06:53:59;;;;;;;22.83;17.80;;;-3.90;99.90;;;;;;5062338;28;20985;-53
2023/12/04 06:56:27;;;;;;;23.30;19.10;;;-3.80;99.90;;;;;;5058493;28;20465;-54
2023/12/04 06:58:54;;;;;;;25.00;19.30;;;-3.90;99.90;;;;;;5059252;28;20520;-53
2023/12/04 07:01:21;;;;;;;23.57;18.53;;;-3.90;99.90;;;;;;5055303;28;20493;-54
2023/12/04 07:03:48;;;;;;;30.40;26.03;;;-3.80;99.90;;;;;;5077751;22;20502;-55
2023/12/04 07:06:14;;;;;;;30.00;24.17;;;-3.80;99.90;;;;;;5048062;28;20466;-55
2023/12/04 07:08:41;;;;;;;25.43;20.67;;;-3.80;99.90;;;;;;5057555;28;20479;-56
2023/12/04 07:11:08;;;;;;;22.07;18.00;;;-3.70;99.90;;;;;;5049916;28;20467;-56
2023/12/04 07:13:36;;;;;;;24.90;19.67;;;-3.70;99.90;;;;;;5041810;28;21055;-56
2023/12/04 07:16:03;;;;;;;25.20;19.03;;;-3.70;99.90;;;;;;5049366;28;20890;-56
2023/12/04 07:18:29;;;;;;;23.17;18.50;;;-3.70;99.90;;;;;;5055720;28;20647;-56
2023/12/04 07:20:56;;;;;;;25.03;19.27;;;-3.60;99.90;;;;;;5050479;28;20994;-56
2023/12/04 07:23:22;;;;;;;25.83;20.30;;;-3.70;99.90;;;;;;5046823;28;21024;-55
2023/12/04 07:25:51;;;;;;;25.17;19.70;;;-3.60;99.90;;;;;;5051886;28;21253;-56
2023/12/04 07:28:18;;;;;;;25.90;20.60;;;-3.60;99.90;;;;;;5045048;28;20832;-56
2023/12/04 07:30:46;;;;;;;22.67;18.60;;;-3.60;99.90;;;;;;5053348;28;20550;-55
2023/12/04 07:33:12;;;;;;;23.17;18.43;;;-3.60;99.90;;;;;;5046841;28;20903;-55
2023/12/04 07:35:39;;;;;;;24.53;18.70;;;-3.60;99.90;;;;;;5048334;28;20519;-56
2023/12/04 07:38:06;;;;;;;22.87;18.80;;;-3.50;99.90;;;;;;5057381;28;20477;-55
2023/12/04 07:40:33;;;;;;;23.83;18.63;;;-3.50;99.90;;;;;;5061377;28;20543;-56
2023/12/04 07:42:59;;;;;;;21.73;18.00;;;-3.40;99.90;;;;;;5051046;28;21226;-56
2023/12/04 07:45:27;;;;;;;23.70;18.73;;;-3.40;99.90;;;;;;5053145;28;20484;-55
2023/12/04 07:47:54;;;;;;;24.97;19.83;;;-3.40;99.90;;;;;;5052363;28;20476;-55
2023/12/04 07:50:21;;;;;;;22.47;17.93;;;-3.40;99.90;;;;;;5051062;28;20489;-57
2023/12/04 07:52:48;;;;;;;23.17;18.00;;;-3.40;99.90;;;;;;5055924;28;20493;-56
2023/12/04 07:55:15;;;;;;;27.57;20.60;;;-3.50;99.90;;;;;;5054903;28;20489;-56
2023/12/04 07:57:42;;;;;;;23.90;19.30;;;-3.30;99.90;;;;;;5057917;28;20505;-56
2023/12/04 08:00:09;;;;;;;21.27;18.10;;;-3.30;99.90;;;;;;5053708;28;20485;-55
2023/12/04 08:02:36;;;;;;;23.43;18.93;;;-3.20;99.90;;;;;;5057729;28;20489;-56
2023/12/04 08:05:04;;;;;;;21.63;17.73;;;-3.20;99.90;;;;;;5052703;28;20492;-55
2023/12/04 08:07:30;;;;;;;26.30;19.43;;;-3.20;99.90;;;;;;5048578;28;20534;-55
2023/12/04 08:09:57;;;;;;;25.30;19.50;;;-3.20;99.90;;;;;;5051445;28;20497;-56
2023/12/04 08:12:24;;;;;;;23.10;18.30;;;-3.20;99.90;;;;;;5054863;28;21021;-56
2023/12/04 08:14:50;;;;;;;25.97;19.83;;;-3.10;99.90;;;;;;5052352;28;20489;-56
2023/12/04 08:17:17;;;;;;;25.00;19.37;;;-3.10;99.90;;;;;;5055118;28;20509;-56
2023/12/04 08:19:44;;;;;;;25.03;19.83;;;-3.10;99.90;;;;;;5051685;28;20458;-55
2023/12/04 08:22:12;;;;;;;21.53;17.73;;;-3.10;99.90;;;;;;5057922;28;20963;-55
2023/12/04 08:24:39;;;;;;;22.20;17.87;;;-3.10;99.90;;;;;;5053415;28;20504;-55
2023/12/04 08:27:06;;;;;;;21.00;17.30;;;-3.10;99.90;;;;;;5052177;28;20489;-57
2023/12/04 08:29:32;;;;;;;23.03;18.73;;;-3.10;1.40;;;;;;5051538;28;20982;-56
2023/12/04 08:31:59;;;;;;;21.93;18.50;;;-3.00;99.90;;;;;;5048948;28;20527;-57
2023/12/04 08:34:25;;;;;;;31.43;20.73;;;-3.00;99.90;;;;;;5054897;28;20563;-55
2023/12/04 08:36:52;;;;;;;22.80;18.47;;;-2.90;99.90;;;;;;5052787;28;21873;-54
2023/12/04 08:39:20;;;;;;;21.63;17.53;;;-2.80;99.90;;;;;;5051798;28;22410;-56
2023/12/04 08:41:47;;;;;;;25.43;19.17;;;-2.80;99.90;;;;;;5056563;28;20457;-54
2023/12/04 08:44:13;;;;;;;30.20;22.20;;;-2.70;99.90;;;;;;5058262;28;20909;-55
2023/12/04 08:46:40;;;;;;;27.63;19.70;;;-2.70;99.90;;;;;;5054020;28;20576;-55
2023/12/04 08:49:07;;;;;;;27.67;19.90;;;-2.70;99.90;;;;;;5065575;28;20477;-56
2023/12/04 08:51:33;;;;;;;28.50;21.73;;;-2.80;99.90;;;;;;5052100;28;20465;-56
2023/12/04 08:54:00;;;;;;;38.67;22.67;;;-2.70;99.90;;;;;;5053894;28;20512;-56
2023/12/04 08:56:28;;;;;;;31.30;20.30;;;-2.70;99.90;;;;;;5058149;28;20486;-56
2023/12/04 08:58:54;;;;;;;32.20;19.03;;;-2.60;99.90;;;;;;5055282;28;20846;-55
2023/12/04 09:01:21;;;;;;;26.77;19.27;;;-2.60;99.90;;;;;;5058719;28;20486;-56
2023/12/04 09:03:47;;;;;;;26.70;18.83;;;-2.60;99.90;;;;;;5057716;28;20525;-56
2023/12/04 09:06:14;;;;;;;22.27;16.83;;;-2.70;99.90;;;;;;5054345;28;20497;-55
2023/12/04 09:08:41;;;;;;;23.43;18.00;;;-2.70;1.40;;;;;;5060380;28;21289;-56
2023/12/04 09:11:07;;;;;;;28.80;19.97;;;-2.60;99.90;;;;;;5048513;28;20978;-56
2023/12/04 09:13:35;;;;;;;27.90;19.17;;;-2.60;1.40;;;;;;5057266;28;20481;-56
2023/12/04 09:16:03;;;;;;;26.93;19.70;;;-2.50;99.90;;;;;;5052949;28;20497;-56
2023/12/04 09:18:29;;;;;;;22.70;17.70;;;-2.50;99.90;;;;;;5056803;28;20504;-56
2023/12/04 09:20:56;;;;;;;27.50;18.20;;;-2.60;99.90;;;;;;5056170;28;20489;-55
2023/12/04 09:23:22;;;;;;;25.60;18.50;;;-2.40;99.90;;;;;;5052282;28;20555;-55
2023/12/04 09:25:49;;;;;;;25.40;19.20;;;-2.40;99.90;;;;;;5058749;28;20493;-56
2023/12/04 09:28:16;;;;;;;23.57;18.27;;;-2.50;99.90;;;;;;5056807;28;20497;-56
2023/12/04 09:30:44;;;;;;;23.80;17.60;;;-2.40;99.90;;;;;;5056207;28;20481;-55
2023/12/04 09:33:10;;;;;;;23.13;17.60;;;-2.30;99.90;;;;;;5055831;28;20512;-56
2023/12/04 09:35:37;;;;;;;21.60;16.93;;;-2.30;99.90;;;;;;5057939;28;20497;-56
2023/12/04 09:38:04;;;;;;;19.97;16.77;;;-2.30;99.90;;;;;;5063540;28;20543;-56
2023/12/04 09:40:30;;;;;;;25.90;19.30;;;-2.30;99.90;;;;;;5054700;28;20468;-56
2023/12/04 09:42:57;;;;;;;25.37;20.50;;;-2.30;99.90;;;;;;5064233;28;20956;-55
2023/12/04 09:45:25;;;;;;;24.70;18.70;;;-2.10;99.90;;;;;;5059695;28;20461;-55
2023/12/04 09:47:54;;;;;;;23.40;18.80;;;-2.10;99.90;;;;;;5058388;28;20472;-55
2023/12/04 09:50:22;;;;;;;25.53;19.90;;;-2.20;99.90;;;;;;5065399;28;20484;-56
2023/12/04 09:52:49;;;;;;;19.70;16.63;;;-2.20;99.90;;;;;;5055275;28;21187;-55
2023/12/04 09:55:16;;;;;;;25.50;18.70;;;-2.00;99.90;;;;;;5055160;28;20464;-55
2023/12/04 09:57:44;;;;;;;23.23;18.97;;;-2.10;99.90;;;;;;5058213;28;20480;-55
2023/12/04 10:00:12;;;;;;;22.63;17.87;;;-1.90;99.90;;;;;;5059368;28;20539;-55
2023/12/04 10:02:40;;;;;;;23.57;18.60;;;-2.00;99.90;;;;;;5049036;28;20464;-55
2023/12/04 10:05:08;;;;;;;24.17;18.60;;;-1.90;99.90;;;;;;5053855;28;20486;-55
2023/12/04 10:07:36;;;;;;;24.80;18.83;;;-1.80;99.90;;;;;;5059012;28;20493;-55
2023/12/04 10:10:04;;;;;;;24.00;18.10;;;-1.80;99.90;;;;;;5056719;28;20488;-56
2023/12/04 10:12:33;;;;;;;27.00;19.57;;;-1.70;99.90;;;;;;5061331;28;20548;-56
2023/12/04 10:15:07;;;;;;;23.10;17.83;;;-1.60;99.90;;;;;;5059588;28;20518;-56
2023/12/04 10:17:36;;;;;;;26.07;18.33;;;-1.60;99.90;;;;;;5050351;28;20978;-56
2023/12/04 10:20:12;;;;;;;22.73;17.83;;;-1.60;99.90;;;;;;5050977;28;20552;-55
2023/12/04 10:22:40;;;;;;;22.10;17.67;;;-1.50;99.90;;;;;;5049899;28;21222;-55
2023/12/04 10:25:15;;;;;;;23.03;17.17;;;-1.50;99.90;;;;;;5058767;28;20458;-55
2023/12/04 10:27:43;;;;;;;22.23;18.23;;;-1.50;99.90;;;;;;5052643;28;20462;-56
2023/12/04 10:30:12;;;;;;;21.23;17.37;;;-1.40;99.90;;;;;;5056660;28;20476;-56
2023/12/04 10:32:40;;;;;;;22.97;16.90;;;-1.40;99.90;;;;;;5052377;28;20454;-56
2023/12/04 10:35:09;;;;;;;22.43;17.60;;;-1.40;99.90;;;;;;5057464;28;20519;-55
2023/12/04 10:37:37;;;;;;;20.40;16.70;;;-1.30;99.90;;;;;;5058621;28;20516;-55
2023/12/04 10:40:08;;;;;;;21.33;16.60;;;-1.20;99.90;;;;;;5050528;28;20481;-56
2023/12/04 10:42:35;;;;;;;20.60;16.00;;;-1.30;99.90;;;;;;5057872;28;20468;-56
2023/12/04 10:45:02;;;;;;;22.57;17.80;;;-1.20;99.90;;;;;;5058831;28;20970;-55
2023/12/04 10:47:31;;;;;;;19.00;16.03;;;-1.00;99.90;;;;;;5055616;28;20462;-55
2023/12/04 10:49:58;;;;;;;27.13;17.23;;;-1.00;99.90;;;;;;5056162;28;20468;-56
2023/12/04 10:52:28;;;;;;;21.20;16.80;;;-1.20;99.90;;;;;;5060297;28;20523;-56
2023/12/04 10:54:54;;;;;;;17.00;14.83;;;-1.10;99.90;;;;;;5063396;28;20515;-56
2023/12/04 10:57:26;;;;;;;19.20;16.10;;;-1.00;99.90;;;;;;5055092;28;20461;-55
2023/12/04 10:59:58;;;;;;;22.27;17.23;;;-0.90;99.90;;;;;;5046427;28;20919;-56
2023/12/04 11:02:27;;;;;;;20.60;16.43;;;-0.90;99.90;;;;;;5051269;28;20489;-56
2023/12/04 11:05:02;;;;;;;22.53;16.97;;;-1.00;99.90;;;;;;5060006;28;20473;-56
2023/12/04 11:07:33;;;;;;;20.30;15.63;;;-0.80;99.90;;;;;;5058520;28;21148;-56
2023/12/04 11:10:01;;;;;;;20.20;15.60;;;-0.90;99.90;;;;;;5054239;28;20494;-56
2023/12/04 11:12:30;;;;;;;18.27;15.87;;;-0.80;99.90;;;;;;5057348;28;20464;-56
2023/12/04 11:15:00;;;;;;;20.67;16.70;;;-0.70;99.90;;;;;;5052243;28;20515;-56
2023/12/04 11:17:28;;;;;;;16.27;14.23;;;-0.70;99.90;;;;;;5059402;28;20489;-56
2023/12/04 11:20:01;;;;;;;17.90;15.27;;;-0.60;99.90;;;;;;5051253;28;20588;-55
2023/12/04 11:22:29;;;;;;;17.90;14.70;;;-0.50;99.90;;;;;;5057856;28;21041;-55
2023/12/04 11:24:57;;;;;;;18.40;14.60;;;-0.50;99.90;;;;;;5055473;28;20502;-56
2023/12/04 11:27:24;;;;;;;16.17;13.53;;;-0.50;99.90;;;;;;5054794;28;20516;-55
2023/12/04 11:29:51;;;;;;;17.70;15.07;;;-0.40;99.90;;;;;;5054409;28;20490;-55
2023/12/04 11:32:18;;;;;;;18.40;15.70;;;-0.60;99.90;;;;;;5058716;28;20461;-56
2023/12/04 11:34:56;;;;;;;19.03;15.50;;;-0.60;99.90;;;;;;5059604;28;20584;-55
2023/12/04 11:37:24;;;;;;;17.83;13.90;;;-0.60;99.90;;;;;;5053675;28;20453;-55
2023/12/04 11:39:52;;;;;;;17.20;14.60;;;-0.50;99.90;;;;;;5060469;28;20491;-56
2023/12/04 11:42:24;;;;;;;15.43;13.67;;;-0.70;99.90;;;;;;5055069;28;20489;-56
2023/12/04 11:44:56;;;;;;;17.77;14.30;;;-0.60;99.90;;;;;;5053358;28;20864;-56
2023/12/04 11:47:23;;;;;;;16.97;14.80;;;-0.60;99.90;;;;;;5057077;28;20502;-56
2023/12/04 11:49:49;;;;;;;18.17;14.93;;;-0.70;99.90;;;;;;5049384;28;20547;-55
2023/12/04 11:52:16;;;;;;;16.17;14.00;;;-0.60;99.90;;;;;;5059676;28;20545;-56
2023/12/04 11:55:08;;;;;;;16.00;14.27;;;-0.60;99.90;;;;;;5058291;28;20511;-56
2023/12/04 11:57:36;;;;;;;17.57;14.53;;;-0.50;99.90;;;;;;5036822;28;20461;-56
2023/12/04 12:00:16;;;;;;;15.13;12.87;;;-0.40;99.90;;;;;;5060011;28;20506;-56
2023/12/04 12:02:48;;;;;;;15.03;13.30;;;-0.40;99.90;;;;;;5056383;28;20469;-57
2023/12/04 12:05:15;;;;;;;15.20;13.60;;;-0.30;99.90;;;;;;5055953;28;20973;-55
2023/12/04 12:07:41;;;;;;;16.00;13.70;;;-0.20;99.90;;;;;;5052261;28;20535;-56
2023/12/04 12:10:12;;;;;;;18.90;13.77;;;-0.20;99.90;;;;;;5053021;28;20986;-55
2023/12/04 12:12:40;;;;;;;18.53;14.40;;;-0.20;99.90;;;;;;5048916;28;20458;-55
2023/12/04 12:15:09;;;;;;;17.57;13.67;;;-0.30;99.90;;;;;;5056365;28;20465;-55
2023/12/04 12:17:36;;;;;;;17.77;13.00;;;-0.30;99.90;;;;;;5050822;28;20822;-55
2023/12/04 12:20:06;;;;;;;15.40;12.77;;;-0.40;99.90;;;;;;5060267;28;20517;-55
2023/12/04 12:22:33;;;;;;;16.53;13.23;;;-0.40;99.90;;;;;;5059774;28;20991;-55
2023/12/04 12:25:00;;;;;;;14.47;12.77;;;-0.40;99.90;;;;;;5057696;28;20993;-56
2023/12/04 12:27:28;;;;;;;17.53;12.63;;;-0.50;99.90;;;;;;5061767;28;20452;-56
2023/12/04 12:29:54;;;;;;;14.07;12.00;;;-0.40;99.90;;;;;;5053838;28;20476;-56